Gil Vicente — CSKG — position and weather

sailwx.info

Track history (hours):
 
Tides and Currents Weather Stations Pressure Air Temp Water Temp Dewpoint Dewpoint Depression Visibility Wind Speed Wind Dir Waves Ship Positions

Gil Vicente

Last reported at 2014-Aug-19 17:34 UTC. Time now 2014-Aug-29 03:29 UTC.
Position N 38°41' W 009°08'.
Warning: this ship's position is 9 days out of date.

Length 49 m.

Type: Passenger vessel. MMSI: 263701390.

Date/timePositionNaut miles runAvg speedWind from/ knotsBaromVisibWave heightAir tempDewpointWater temp
2014-Aug-19 17:34N 38°41' W 009°08'1 1.4
2014-Aug-19 16:33N 38°42' W 009°08'4 4.2
2014-Aug-19 15:33N 38°39' W 009°05'0 0.1
2014-Aug-19 14:34N 38°39' W 009°05'0 0.0
2014-Aug-19 08:26N 38°39' W 009°05'0 0.3
2014-Aug-19 07:34N 38°39' W 009°05'0 0.4
2014-Aug-19 06:33N 38°39' W 009°05'0 0.0
2014-Aug-19 05:33N 38°39' W 009°05'0 0.0
2014-Aug-18 20:28N 38°39' W 009°05'0 0.1
2014-Aug-18 19:33N 38°39' W 009°05'3 3.3
2014-Aug-18 18:33N 38°42' W 009°07'2 1.6
2014-Aug-18 17:33N 38°40' W 009°07'2 1.9
2014-Aug-18 16:33N 38°39' W 009°05'0 0.1
2014-Aug-18 15:33N 38°39' W 009°05'0 0.1
2014-Aug-18 14:33N 38°39' W 009°05'0 0.0
2014-Aug-18 12:14N 38°39' W 009°05'0 0.0
2014-Aug-18 11:34N 38°39' W 009°05'0 0.0
2014-Aug-18 10:34N 38°39' W 009°05'1 0.9
2014-Aug-18 09:34N 38°39' W 009°06'0 0.4
2014-Aug-18 08:34N 38°39' W 009°05'3 3.3
2014-Aug-18 07:34N 38°42' W 009°08'1 0.6
2014-Aug-18 06:33N 38°42' W 009°08'4 0.1
2014-Aug-16 10:28N 38°39' W 009°05'1 1.1
2014-Aug-16 09:33N 38°40' W 009°06'0 0.5
2014-Aug-16 08:34N 38°40' W 009°07'0 0.1
2014-Aug-16 07:33N 38°40' W 009°06'0 0.0
2014-Aug-16 06:34N 38°40' W 009°07'1 1.2
2014-Aug-16 05:33N 38°41' W 009°07'1 0.6
2014-Aug-16 04:33N 38°41' W 009°08'3 1.0
2014-Aug-16 01:25N 38°39' W 009°05'0 0.5
2014-Aug-16 00:33N 38°39' W 009°05'0 0.2
2014-Aug-15 23:33N 38°39' W 009°05'0 0.0
2014-Aug-15 22:33N 38°39' W 009°05'1 1.3
2014-Aug-15 21:34N 38°40' W 009°06'0 0.1
2014-Aug-15 20:34N 38°40' W 009°06'0 0.1
2014-Aug-15 19:33N 38°40' W 009°06'1 0.8
2014-Aug-15 18:34N 38°40' W 009°07'1 0.6
2014-Aug-15 17:33N 38°41' W 009°08'0 0.1
2014-Aug-15 16:33N 38°41' W 009°08'0 0.1
2014-Aug-15 15:34N 38°41' W 009°07'0 0.1
2014-Aug-15 14:33N 38°40' W 009°08'3 2.6
2014-Aug-15 13:33N 38°39' W 009°05'0 0.0
2014-Aug-15 12:33N 38°39' W 009°05'1 1.4
2014-Aug-15 11:34N 38°40' W 009°06'0 0.1
2014-Aug-15 10:34N 38°40' W 009°06'0 0.3
2014-Aug-15 09:33N 38°40' W 009°07'0 0.1
2014-Aug-15 08:34N 38°40' W 009°07'1 0.5
2014-Aug-15 07:34N 38°40' W 009°06'0 0.5
2014-Aug-15 06:34N 38°40' W 009°07'1 1.4
2014-Aug-15 05:34N 38°41' W 009°08'1 0.7
2014-Aug-15 04:33N 38°42' W 009°08'3 1.1
2014-Aug-15 01:24N 38°39' W 009°05'0 0.4
2014-Aug-15 00:33N 38°39' W 009°05'0 0.2
2014-Aug-14 23:34N 38°39' W 009°05'0 0.3
2014-Aug-14 22:34N 38°39' W 009°05'1 1.2
2014-Aug-14 21:33N 38°40' W 009°07'0 0.0
2014-Aug-14 20:33N 38°40' W 009°07'2 1.7
2014-Aug-14 19:33N 38°39' W 009°05'0 0.0
2014-Aug-14 18:33N 38°39' W 009°05'1 1.2
2014-Aug-14 17:34N 38°40' W 009°06'3 3.1
2014-Aug-14 16:34N 38°42' W 009°08'4 3.9
2014-Aug-14 15:33N 38°39' W 009°05'  
2014-Aug-11 10:08N 38°39' W 009°05'0 0.2
2014-Aug-11 09:33N 38°39' W 009°05'4 4.1
2014-Aug-11 08:33N 38°42' W 009°08'0 0.0
2014-Aug-11 07:34N 38°42' W 009°08'3 2.7
2014-Aug-11 06:34N 38°40' W 009°07'2 1.5
2014-Aug-11 05:33N 38°39' W 009°05'  
Track history (hours):
 
Tides and Currents Weather Stations Pressure Air Temp Water Temp Dewpoint Dewpoint Depression Visibility Wind Speed Wind Dir Waves Ship Positions

Gil Vicente

Last reported at 2014-Aug-19 17:34 UTC. Time now 2014-Aug-29 03:29 UTC.
Position N 38°41' W 009°08'.
Warning: this ship's position is 9 days out of date.

Length 49 m.

Type: Passenger vessel. MMSI: 263701390.

Date/timePositionNaut miles runAvg speedWind from/ knotsBaromVisibWave heightAir tempDewpointWater temp
2014-Aug-19 17:34N 38°41' W 009°08'1 1.4
2014-Aug-19 16:33N 38°42' W 009°08'4 4.2
2014-Aug-19 15:33N 38°39' W 009°05'0 0.1
2014-Aug-19 14:34N 38°39' W 009°05'0 0.0
2014-Aug-19 08:26N 38°39' W 009°05'0 0.3
2014-Aug-19 07:34N 38°39' W 009°05'0 0.4
2014-Aug-19 06:33N 38°39' W 009°05'0 0.0
2014-Aug-19 05:33N 38°39' W 009°05'0 0.0
2014-Aug-18 20:28N 38°39' W 009°05'0 0.1
2014-Aug-18 19:33N 38°39' W 009°05'3 3.3
2014-Aug-18 18:33N 38°42' W 009°07'2 1.6
2014-Aug-18 17:33N 38°40' W 009°07'2 1.9
2014-Aug-18 16:33N 38°39' W 009°05'0 0.1
2014-Aug-18 15:33N 38°39' W 009°05'0 0.1
2014-Aug-18 14:33N 38°39' W 009°05'0 0.0
2014-Aug-18 12:14N 38°39' W 009°05'0 0.0
2014-Aug-18 11:34N 38°39' W 009°05'0 0.0
2014-Aug-18 10:34N 38°39' W 009°05'1 0.9
2014-Aug-18 09:34N 38°39' W 009°06'0 0.4
2014-Aug-18 08:34N 38°39' W 009°05'3 3.3
2014-Aug-18 07:34N 38°42' W 009°08'1 0.6
2014-Aug-18 06:33N 38°42' W 009°08'4 0.1
2014-Aug-16 10:28N 38°39' W 009°05'1 1.1
2014-Aug-16 09:33N 38°40' W 009°06'0 0.5
2014-Aug-16 08:34N 38°40' W 009°07'0 0.1
2014-Aug-16 07:33N 38°40' W 009°06'0 0.0
2014-Aug-16 06:34N 38°40' W 009°07'1 1.2
2014-Aug-16 05:33N 38°41' W 009°07'1 0.6
2014-Aug-16 04:33N 38°41' W 009°08'3 1.0
2014-Aug-16 01:25N 38°39' W 009°05'0 0.5
2014-Aug-16 00:33N 38°39' W 009°05'0 0.2
2014-Aug-15 23:33N 38°39' W 009°05'0 0.0
2014-Aug-15 22:33N 38°39' W 009°05'1 1.3
2014-Aug-15 21:34N 38°40' W 009°06'0 0.1
2014-Aug-15 20:34N 38°40' W 009°06'0 0.1
2014-Aug-15 19:33N 38°40' W 009°06'1 0.8
2014-Aug-15 18:34N 38°40' W 009°07'1 0.6
2014-Aug-15 17:33N 38°41' W 009°08'0 0.1
2014-Aug-15 16:33N 38°41' W 009°08'0 0.1
2014-Aug-15 15:34N 38°41' W 009°07'0 0.1
2014-Aug-15 14:33N 38°40' W 009°08'3 2.6
2014-Aug-15 13:33N 38°39' W 009°05'0 0.0
2014-Aug-15 12:33N 38°39' W 009°05'1 1.4
2014-Aug-15 11:34N 38°40' W 009°06'0 0.1
2014-Aug-15 10:34N 38°40' W 009°06'0 0.3
2014-Aug-15 09:33N 38°40' W 009°07'0 0.1
2014-Aug-15 08:34N 38°40' W 009°07'1 0.5
2014-Aug-15 07:34N 38°40' W 009°06'0 0.5
2014-Aug-15 06:34N 38°40' W 009°07'1 1.4
2014-Aug-15 05:34N 38°41' W 009°08'1 0.7
2014-Aug-15 04:33N 38°42' W 009°08'3 1.1
2014-Aug-15 01:24N 38°39' W 009°05'0 0.4
2014-Aug-15 00:33N 38°39' W 009°05'0 0.2
2014-Aug-14 23:34N 38°39' W 009°05'0 0.3
2014-Aug-14 22:34N 38°39' W 009°05'1 1.2
2014-Aug-14 21:33N 38°40' W 009°07'0 0.0
2014-Aug-14 20:33N 38°40' W 009°07'2 1.7
2014-Aug-14 19:33N 38°39' W 009°05'0 0.0
2014-Aug-14 18:33N 38°39' W 009°05'1 1.2
2014-Aug-14 17:34N 38°40' W 009°06'3 3.1
2014-Aug-14 16:34N 38°42' W 009°08'4 3.9
2014-Aug-14 15:33N 38°39' W 009°05'  
2014-Aug-11 10:08N 38°39' W 009°05'0 0.2
2014-Aug-11 09:33N 38°39' W 009°05'4 4.1
2014-Aug-11 08:33N 38°42' W 009°08'0 0.0
2014-Aug-11 07:34N 38°42' W 009°08'3 2.7
2014-Aug-11 06:34N 38°40' W 009°07'2 1.5
2014-Aug-11 05:33N 38°39' W 009°05'  

Dump ship's entire track history